createdAt,value
2022-10-07T00:01:28.322Z,5.80
2022-10-07T00:04:13.804Z,6.77
2022-10-07T00:06:58.885Z,6.07
2022-10-07T00:09:43.899Z,6.57
2022-10-07T00:12:28.858Z,6.63
2022-10-07T00:15:13.767Z,5.53
2022-10-07T00:17:58.510Z,5.83
2022-10-07T00:20:43.471Z,5.80
2022-10-07T00:23:28.515Z,5.70
2022-10-07T00:26:17.192Z,5.87
2022-10-07T00:29:04.584Z,6.30
2022-10-07T00:31:53.510Z,5.73
2022-10-07T00:34:41.436Z,5.93
2022-10-07T00:37:26.660Z,6.07
2022-10-07T00:40:13.276Z,6.20
2022-10-07T00:42:58.522Z,6.30
2022-10-07T00:45:43.243Z,5.50
2022-10-07T00:48:32.335Z,5.53
2022-10-07T00:51:17.952Z,5.67
2022-10-07T00:54:08.066Z,5.67
2022-10-07T00:56:53.425Z,5.83
2022-10-07T00:59:39.145Z,5.70
2022-10-07T01:02:26.068Z,5.60
2022-10-07T01:05:12.813Z,5.77
2022-10-07T01:07:59.503Z,6.00
2022-10-07T01:10:59.995Z,5.20
2022-10-07T01:14:14.498Z,5.80
2022-10-07T01:17:08.014Z,5.87
2022-10-07T01:20:05.161Z,5.60
2022-10-07T01:22:50.110Z,6.30
2022-10-07T01:25:59.815Z,6.10
2022-10-07T01:28:49.842Z,6.00
2022-10-07T01:31:44.295Z,6.10
2022-10-07T01:34:30.741Z,6.00
2022-10-07T01:37:19.552Z,5.87
2022-10-07T01:40:13.976Z,5.87
2022-10-07T01:42:59.633Z,5.97
2022-10-07T01:45:45.096Z,5.50
2022-10-07T01:48:30.068Z,6.10
2022-10-07T01:51:18.794Z,6.10
2022-10-07T01:54:06.959Z,5.83
2022-10-07T01:56:55.139Z,6.27
2022-10-07T01:59:49.385Z,6.07
2022-10-07T02:02:51.412Z,6.30
2022-10-07T02:06:01.251Z,6.07
2022-10-07T02:08:50.877Z,6.27
2022-10-07T02:11:40.000Z,6.20
2022-10-07T02:14:38.227Z,5.93
2022-10-07T02:17:25.673Z,6.30
2022-10-07T02:20:13.952Z,6.27
2022-10-07T02:23:01.529Z,6.30
2022-10-07T02:25:52.303Z,6.37
2022-10-07T02:28:41.559Z,7.00
2022-10-07T02:31:30.218Z,5.90
2022-10-07T02:34:20.107Z,6.10
2022-10-07T02:37:11.621Z,5.87
2022-10-07T02:39:57.689Z,6.33
2022-10-07T02:42:53.797Z,5.83
2022-10-07T02:45:51.163Z,6.10
2022-10-07T02:48:46.116Z,5.60
2022-10-07T02:51:44.896Z,5.77
2022-10-07T02:54:42.136Z,5.90
2022-10-07T02:57:30.558Z,5.63
2022-10-07T03:00:17.660Z,5.37
2022-10-07T03:03:04.419Z,5.80
2022-10-07T03:05:49.517Z,5.37
2022-10-07T03:08:34.425Z,6.13
2022-10-07T03:11:19.284Z,5.80
2022-10-07T03:14:04.359Z,5.90
2022-10-07T03:16:49.526Z,6.03
2022-10-07T03:19:34.337Z,6.13
2022-10-07T03:22:19.244Z,5.57
2022-10-07T03:25:04.621Z,6.33
2022-10-07T03:27:49.629Z,6.33
2022-10-07T03:30:34.558Z,5.80
2022-10-07T03:33:21.498Z,5.60
2022-10-07T03:36:06.969Z,5.77
2022-10-07T03:38:51.966Z,6.03
2022-10-07T03:41:37.363Z,6.10
2022-10-07T03:44:22.467Z,6.37
2022-10-07T03:47:10.677Z,5.77
2022-10-07T03:49:56.081Z,6.00
2022-10-07T03:52:41.016Z,6.40
2022-10-07T03:55:26.030Z,6.20
2022-10-07T03:58:11.734Z,6.70
2022-10-07T04:01:13.375Z,6.67
2022-10-07T04:03:58.999Z,6.53
2022-10-07T04:06:43.944Z,6.73
2022-10-07T04:09:28.892Z,5.97
2022-10-07T04:12:13.812Z,6.77
2022-10-07T04:14:59.329Z,7.27
2022-10-07T04:17:46.432Z,6.30
2022-10-07T04:20:32.349Z,6.20
2022-10-07T04:23:17.371Z,6.10
2022-10-07T04:26:10.658Z,6.83
2022-10-07T04:28:55.540Z,6.43
2022-10-07T04:31:40.609Z,6.80
2022-10-07T04:34:25.726Z,7.27
2022-10-07T04:37:10.577Z,6.60
2022-10-07T04:40:00.636Z,7.20
2022-10-07T04:42:47.837Z,6.93
2022-10-07T04:45:35.041Z,6.87
2022-10-07T04:48:22.348Z,6.40
2022-10-07T04:51:09.377Z,7.00
2022-10-07T04:53:57.103Z,6.40
2022-10-07T04:56:42.658Z,7.40
2022-10-07T04:59:29.906Z,6.57
2022-10-07T05:02:15.446Z,7.23
2022-10-07T05:05:00.745Z,7.17
2022-10-07T05:07:53.350Z,7.43
2022-10-07T05:10:39.649Z,7.60
2022-10-07T05:13:25.586Z,7.47
2022-10-07T05:16:10.873Z,7.07
2022-10-07T05:18:56.132Z,7.30
2022-10-07T05:21:41.439Z,7.27
2022-10-07T05:24:26.530Z,8.33
2022-10-07T05:27:13.405Z,6.97
2022-10-07T05:29:58.729Z,7.50
2022-10-07T05:32:43.474Z,7.30
2022-10-07T05:35:28.812Z,7.17
2022-10-07T05:38:13.721Z,7.87
2022-10-07T05:41:01.271Z,7.07
2022-10-07T05:43:46.486Z,7.70
2022-10-07T05:46:32.841Z,7.80
2022-10-07T05:49:18.115Z,13.23
2022-10-07T05:52:03.891Z,10.40
2022-10-07T05:54:48.727Z,10.20
2022-10-07T05:57:33.576Z,9.70
2022-10-07T06:00:18.493Z,10.03
2022-10-07T06:03:04.287Z,40.60
2022-10-07T06:05:50.105Z,12.00
2022-10-07T06:08:36.411Z,13.03
2022-10-07T06:11:21.730Z,13.10
2022-10-07T06:14:06.764Z,10.10
2022-10-07T06:16:51.902Z,9.90
2022-10-07T06:19:37.845Z,8.20
2022-10-07T06:22:22.961Z,7.47
2022-10-07T06:25:08.438Z,7.33
2022-10-07T06:27:55.915Z,7.17
2022-10-07T06:30:41.272Z,6.83
2022-10-07T06:33:26.696Z,6.77
2022-10-07T06:36:13.578Z,6.73
2022-10-07T06:38:58.655Z,6.03
2022-10-07T06:41:43.520Z,6.80
2022-10-07T06:44:28.958Z,5.88
2022-10-07T06:47:14.283Z,6.10
2022-10-07T06:49:59.761Z,6.22
2022-10-07T06:52:44.693Z,6.32
2022-10-07T06:55:30.102Z,6.07
2022-10-07T06:58:15.250Z,6.38
2022-10-07T07:01:01.079Z,5.70
2022-10-07T07:03:46.667Z,6.67
2022-10-07T07:06:36.870Z,6.03
2022-10-07T07:09:21.909Z,6.13
2022-10-07T07:12:07.346Z,5.40
2022-10-07T07:14:52.702Z,4.90
2022-10-07T07:17:37.801Z,5.13
2022-10-07T07:20:23.196Z,4.83
2022-10-07T07:23:08.869Z,4.80
2022-10-07T07:25:53.872Z,5.30
2022-10-07T07:28:38.723Z,4.80
2022-10-07T07:31:24.274Z,4.83
2022-10-07T07:34:11.875Z,4.97
2022-10-07T07:36:57.029Z,4.73
2022-10-07T07:39:42.733Z,5.03
2022-10-07T07:42:27.747Z,4.73
2022-10-07T07:45:13.185Z,5.07
2022-10-07T07:47:59.565Z,4.30
2022-10-07T07:50:44.692Z,5.30
2022-10-07T07:53:29.577Z,4.43
2022-10-07T07:56:14.566Z,4.65
2022-10-07T07:59:00.819Z,4.07
2022-10-07T08:01:46.042Z,4.47
2022-10-07T08:04:31.125Z,4.30
2022-10-07T08:07:16.536Z,3.80
2022-10-07T08:10:01.792Z,4.05
2022-10-07T08:12:47.164Z,4.50
2022-10-07T08:15:32.396Z,4.20
2022-10-07T08:18:18.521Z,3.67
2022-10-07T08:21:04.649Z,3.95
2022-10-07T08:23:57.521Z,3.90
2022-10-07T08:26:43.119Z,4.15
2022-10-07T08:29:28.180Z,3.92
2022-10-07T08:32:13.541Z,3.55
2022-10-07T08:34:58.849Z,4.20
2022-10-07T08:37:44.210Z,3.97
2022-10-07T08:40:29.912Z,3.83
2022-10-07T08:43:16.763Z,3.78
2022-10-07T08:46:04.693Z,3.55
2022-10-07T08:48:55.549Z,4.03
2022-10-07T08:51:50.321Z,3.58
2022-10-07T08:54:35.880Z,3.55
2022-10-07T08:57:33.713Z,3.92
2022-10-07T09:00:21.798Z,3.05
2022-10-07T09:03:25.382Z,3.50
2022-10-07T09:06:23.310Z,2.95
2022-10-07T09:09:17.807Z,3.03
2022-10-07T09:12:08.957Z,2.88
2022-10-07T09:14:57.845Z,2.70
2022-10-07T09:17:54.149Z,3.35
2022-10-07T09:20:45.462Z,2.92
2022-10-07T09:23:32.725Z,2.80
2022-10-07T09:26:17.970Z,2.97
2022-10-07T09:29:03.608Z,2.78
2022-10-07T09:31:48.934Z,2.83
2022-10-07T09:34:34.288Z,3.45
2022-10-07T09:37:21.226Z,2.75
2022-10-07T09:40:43.830Z,2.55
2022-10-07T09:43:38.926Z,2.55
2022-10-07T09:46:50.103Z,2.90
2022-10-07T09:49:42.073Z,2.58
2022-10-07T09:52:29.574Z,2.92
2022-10-07T09:55:38.966Z,2.90
2022-10-07T09:58:29.836Z,2.80
2022-10-07T10:01:16.343Z,2.65
2022-10-07T10:04:01.199Z,2.78
2022-10-07T10:06:51.143Z,2.95
2022-10-07T10:09:36.960Z,2.63
2022-10-07T10:12:23.697Z,2.60
2022-10-07T10:15:42.662Z,2.90
2022-10-07T10:18:33.172Z,2.78
2022-10-07T10:21:21.689Z,2.50
2022-10-07T10:24:14.133Z,2.67
2022-10-07T10:27:20.000Z,2.55
2022-10-07T10:30:09.128Z,2.80
2022-10-07T10:33:20.079Z,2.45
2022-10-07T10:36:23.929Z,3.00
2022-10-07T10:39:25.010Z,3.22
2022-10-07T10:42:14.751Z,2.42
2022-10-07T10:45:23.942Z,2.65
2022-10-07T10:48:24.335Z,2.85
2022-10-07T10:51:28.485Z,3.63
2022-10-07T10:54:19.705Z,2.80
2022-10-07T10:57:10.478Z,2.97
2022-10-07T11:00:04.529Z,2.67
2022-10-07T11:02:59.283Z,3.08
2022-10-07T11:05:46.964Z,2.83
2022-10-07T11:08:38.302Z,3.15
2022-10-07T11:11:24.944Z,2.63
2022-10-07T11:14:16.097Z,3.00
2022-10-07T11:17:19.672Z,2.78
2022-10-07T11:20:22.026Z,2.65
2022-10-07T11:23:20.998Z,2.75
2022-10-07T11:26:14.833Z,3.17
2022-10-07T11:29:09.768Z,3.20
2022-10-07T11:32:06.114Z,3.05
2022-10-07T11:35:22.765Z,2.67
2022-10-07T11:38:10.992Z,2.90
2022-10-07T11:41:12.422Z,2.50
2022-10-07T11:44:05.702Z,3.03
2022-10-07T11:46:52.793Z,2.70
2022-10-07T11:49:46.471Z,3.25
2022-10-07T11:55:27.918Z,3.80
2022-10-07T11:58:26.614Z,2.63
2022-10-07T12:01:27.133Z,2.80
2022-10-07T12:04:21.689Z,3.10
2022-10-07T12:07:31.575Z,2.88
2022-10-07T12:10:23.884Z,2.70
2022-10-07T12:13:08.979Z,2.58
2022-10-07T12:15:54.053Z,3.05
2022-10-07T12:18:39.214Z,2.65
2022-10-07T12:21:24.604Z,2.83
2022-10-07T12:24:15.104Z,3.40
2022-10-07T12:27:24.554Z,3.25
2022-10-07T12:30:40.279Z,2.85
2022-10-07T12:33:38.798Z,2.85
2022-10-07T12:36:28.245Z,2.90
2022-10-07T12:39:13.200Z,2.90
2022-10-07T12:41:59.812Z,2.88
2022-10-07T12:44:47.282Z,3.05
2022-10-07T12:47:33.143Z,2.83
2022-10-07T12:50:20.853Z,2.50
2022-10-07T12:53:06.381Z,3.08
2022-10-07T12:55:54.836Z,2.80
2022-10-07T12:59:13.945Z,2.28
2022-10-07T13:02:22.192Z,2.80
2022-10-07T13:05:40.014Z,2.78
2022-10-07T13:08:54.288Z,3.03
2022-10-07T13:12:00.745Z,2.80
2022-10-07T13:15:03.111Z,3.20
2022-10-07T13:17:58.617Z,2.97
2022-10-07T13:21:16.373Z,3.50
2022-10-07T13:24:01.343Z,2.78
2022-10-07T13:26:46.905Z,2.42
2022-10-07T13:29:32.732Z,3.03
2022-10-07T13:32:26.433Z,3.03
2022-10-07T13:35:34.083Z,3.05
2022-10-07T13:38:27.875Z,3.20
2022-10-07T13:41:29.846Z,2.50
2022-10-07T13:44:18.964Z,3.00
2022-10-07T13:47:06.891Z,3.00
2022-10-07T13:49:53.887Z,3.10
2022-10-07T13:52:44.130Z,2.72
2022-10-07T13:55:30.846Z,2.53
2022-10-07T13:58:16.451Z,2.90
2022-10-07T14:01:05.029Z,3.05
2022-10-07T14:04:00.637Z,2.70
2022-10-07T14:06:54.710Z,3.40
2022-10-07T14:09:51.104Z,3.30
2022-10-07T14:12:43.835Z,2.53
2022-10-07T14:15:31.553Z,2.75
2022-10-07T14:18:17.372Z,2.95
2022-10-07T14:21:11.419Z,2.85
2022-10-07T14:23:56.337Z,2.90
2022-10-07T14:26:43.144Z,2.33
2022-10-07T14:29:28.472Z,2.72
2022-10-07T14:32:22.477Z,2.40
2022-10-07T14:35:27.721Z,2.53
2022-10-07T14:38:25.525Z,3.10
2022-10-07T14:41:11.234Z,2.70
2022-10-07T14:43:56.892Z,2.72
2022-10-07T14:46:41.754Z,2.88
2022-10-07T14:49:26.797Z,2.50
2022-10-07T14:52:42.052Z,2.58
2022-10-07T14:55:29.642Z,2.40
2022-10-07T14:58:14.782Z,2.55
2022-10-07T15:00:59.695Z,2.42
2022-10-07T15:03:45.015Z,2.50
2022-10-07T15:06:29.982Z,2.28
2022-10-07T15:09:15.888Z,2.97
2022-10-07T15:12:00.889Z,2.75
2022-10-07T15:14:45.572Z,2.90
2022-10-07T15:17:31.030Z,2.78
2022-10-07T15:20:16.834Z,2.80
2022-10-07T15:23:01.563Z,2.90
2022-10-07T15:25:46.458Z,2.85
2022-10-07T15:28:32.902Z,3.03
2022-10-07T15:31:18.148Z,2.83
2022-10-07T15:34:03.741Z,2.90
2022-10-07T15:36:48.948Z,2.42
2022-10-07T15:39:38.829Z,2.78
2022-10-07T15:42:25.377Z,2.55
2022-10-07T15:45:11.037Z,2.67
2022-10-07T15:48:00.518Z,2.90
2022-10-07T15:50:47.303Z,2.67
2022-10-07T15:53:32.998Z,2.90
2022-10-07T15:56:18.285Z,3.38
2022-10-07T15:59:03.839Z,2.60
2022-10-07T16:01:49.119Z,3.08
2022-10-07T16:04:34.695Z,2.97
2022-10-07T16:07:19.902Z,2.78
2022-10-07T16:10:08.522Z,3.38
2022-10-07T16:12:57.292Z,6.00
2022-10-07T16:15:42.567Z,6.50
2022-10-07T16:18:28.488Z,5.40
2022-10-07T16:21:25.716Z,4.57
2022-10-07T16:24:16.586Z,3.30
2022-10-07T16:27:02.248Z,3.80
2022-10-07T16:29:47.764Z,3.03
2022-10-07T16:32:33.014Z,2.60
2022-10-07T16:35:18.010Z,3.08
2022-10-07T16:38:02.940Z,3.10
2022-10-07T16:40:52.873Z,3.35
2022-10-07T16:43:37.715Z,3.08
2022-10-07T16:46:23.575Z,3.00
2022-10-07T16:49:13.183Z,3.15
2022-10-07T16:51:58.764Z,21.83
2022-10-07T16:54:43.563Z,26.50
2022-10-07T16:57:28.981Z,3.80
2022-10-07T17:00:14.512Z,3.83
2022-10-07T17:02:59.725Z,4.22
2022-10-07T17:05:44.992Z,4.00
2022-10-07T17:08:30.445Z,3.33
2022-10-07T17:11:19.111Z,3.95
2022-10-07T17:14:07.718Z,3.55
2022-10-07T17:16:56.714Z,6.68
2022-10-07T17:19:41.900Z,4.35
2022-10-07T17:22:27.261Z,4.70
2022-10-07T17:25:12.383Z,4.47
2022-10-07T17:27:57.607Z,4.63
2022-10-07T17:30:43.019Z,4.15
2022-10-07T17:33:27.875Z,4.70
2022-10-07T17:36:12.973Z,4.65
2022-10-07T17:38:58.791Z,4.57
2022-10-07T17:41:44.209Z,4.63
2022-10-07T17:44:29.319Z,4.00
2022-10-07T17:47:14.601Z,4.40
2022-10-07T17:50:00.059Z,17.77
2022-10-07T17:52:48.188Z,6.63
2022-10-07T17:55:33.813Z,5.30
2022-10-07T17:58:18.576Z,5.47
2022-10-07T18:01:12.504Z,4.85
2022-10-07T18:04:06.325Z,4.97
2022-10-07T18:06:51.734Z,4.65
2022-10-07T18:09:36.708Z,5.05
2022-10-07T18:12:22.055Z,6.40
2022-10-07T18:15:08.987Z,5.97
2022-10-07T18:17:54.342Z,4.85
2022-10-07T18:20:39.901Z,5.88
2022-10-07T18:23:27.852Z,6.28
2022-10-07T18:26:12.942Z,5.93
2022-10-07T18:28:57.835Z,6.47
2022-10-07T18:31:43.436Z,7.47
2022-10-07T18:34:28.982Z,5.47
2022-10-07T18:37:14.348Z,7.93
2022-10-07T18:39:59.718Z,8.73
2022-10-07T18:42:44.968Z,6.97
2022-10-07T18:45:30.407Z,7.15
2022-10-07T18:48:15.636Z,7.18
2022-10-07T18:51:01.952Z,7.43
2022-10-07T18:53:47.821Z,7.63
2022-10-07T18:56:36.972Z,7.20
2022-10-07T18:59:25.708Z,8.75
2022-10-07T19:02:11.232Z,9.57
2022-10-07T19:04:56.660Z,8.52
2022-10-07T19:07:41.576Z,7.65
2022-10-07T19:10:26.929Z,7.68
2022-10-07T19:13:20.400Z,6.57
2022-10-07T19:16:06.009Z,6.53
2022-10-07T19:18:54.527Z,6.55
2022-10-07T19:21:39.614Z,7.35
2022-10-07T19:24:24.950Z,8.55
2022-10-07T19:27:10.505Z,7.50
2022-10-07T19:29:55.292Z,7.85
2022-10-07T19:32:41.334Z,8.18
2022-10-07T19:35:26.717Z,8.60
2022-10-07T19:38:12.065Z,8.02
2022-10-07T19:40:57.499Z,8.43
2022-10-07T19:43:43.917Z,8.00
2022-10-07T19:46:30.828Z,9.35
2022-10-07T19:49:16.166Z,8.80
2022-10-07T19:52:01.415Z,8.32
2022-10-07T19:54:46.269Z,8.15
2022-10-07T19:57:31.699Z,7.05
2022-10-07T20:00:16.858Z,10.32
2022-10-07T20:03:02.201Z,7.88
2022-10-07T20:05:47.108Z,10.23
2022-10-07T20:08:33.949Z,8.65
2022-10-07T20:11:18.853Z,8.32
2022-10-07T20:14:04.351Z,7.65
2022-10-07T20:16:49.692Z,8.43
2022-10-07T20:19:35.031Z,11.07
2022-10-07T20:22:20.528Z,9.37
2022-10-07T20:25:06.509Z,8.47
2022-10-07T20:27:51.637Z,9.10
2022-10-07T20:30:36.400Z,9.45
2022-10-07T20:33:21.997Z,10.25
2022-10-07T20:36:07.528Z,24.85
2022-10-07T20:39:02.142Z,12.50
2022-10-07T20:41:48.715Z,15.67
2022-10-07T20:44:34.373Z,9.38
2022-10-07T20:47:21.337Z,11.73
2022-10-07T20:50:06.778Z,8.87
2022-10-07T20:52:51.731Z,10.97
2022-10-07T20:55:37.035Z,11.77
2022-10-07T20:58:22.485Z,7.77
2022-10-07T21:01:07.610Z,8.63
2022-10-07T21:03:52.609Z,9.30
2022-10-07T21:06:37.816Z,11.60
2022-10-07T21:09:23.791Z,7.97
2022-10-07T21:12:12.141Z,7.43
2022-10-07T21:14:57.433Z,8.40
2022-10-07T21:17:42.246Z,8.97
2022-10-07T21:20:27.087Z,20.33
2022-10-07T21:23:12.427Z,28.67
2022-10-07T21:26:01.554Z,33.17
2022-10-07T21:28:46.938Z,17.98
2022-10-07T21:31:32.646Z,11.27
2022-10-07T21:34:17.519Z,10.37
2022-10-07T21:37:02.467Z,9.13
2022-10-07T21:39:47.306Z,9.80
2022-10-07T21:42:32.181Z,9.57
2022-10-07T21:45:17.242Z,8.82
2022-10-07T21:48:02.616Z,8.20
2022-10-07T21:50:58.461Z,8.52
2022-10-07T21:53:44.740Z,7.90
2022-10-07T21:56:31.593Z,7.22
2022-10-07T21:59:16.707Z,7.10
2022-10-07T22:02:01.650Z,7.30
2022-10-07T22:04:46.897Z,7.60
2022-10-07T22:07:31.918Z,7.95
2022-10-07T22:10:17.119Z,6.93
2022-10-07T22:13:03.080Z,7.37
2022-10-07T22:15:48.448Z,7.73
2022-10-07T22:18:35.429Z,16.70
2022-10-07T22:21:23.539Z,13.70
2022-10-07T22:24:09.200Z,11.27
2022-10-07T22:26:54.656Z,15.57
2022-10-07T22:29:39.946Z,9.23
2022-10-07T22:32:24.791Z,12.37
2022-10-07T22:35:09.768Z,8.60
2022-10-07T22:37:54.449Z,5.60
2022-10-07T22:40:39.436Z,5.30
2022-10-07T22:43:24.433Z,5.93
2022-10-07T22:46:10.104Z,5.00
2022-10-07T22:48:56.727Z,5.17
2022-10-07T22:51:41.936Z,5.73
2022-10-07T22:54:27.821Z,5.07
2022-10-07T22:57:12.834Z,5.80
2022-10-07T22:59:57.800Z,5.15
2022-10-07T23:02:43.029Z,5.53
2022-10-07T23:05:28.201Z,5.20
2022-10-07T23:08:13.205Z,5.50
2022-10-07T23:10:59.174Z,5.40
2022-10-07T23:13:44.714Z,5.40
2022-10-07T23:16:30.007Z,5.38
2022-10-07T23:19:15.106Z,5.37
2022-10-07T23:21:59.973Z,5.33
2022-10-07T23:24:44.752Z,5.60
2022-10-07T23:27:29.701Z,5.83
2022-10-07T23:30:15.043Z,5.17
2022-10-07T23:33:00.456Z,5.00
2022-10-07T23:35:45.252Z,5.20
2022-10-07T23:38:30.124Z,4.83
2022-10-07T23:41:19.251Z,4.67
2022-10-07T23:44:04.461Z,4.97
2022-10-07T23:46:49.775Z,4.97
2022-10-07T23:49:34.658Z,5.13
2022-10-07T23:52:19.964Z,4.70
2022-10-07T23:55:05.690Z,5.07
2022-10-07T23:57:50.443Z,4.60
